sensor_id;sensor_type;location;lat;lon;timestamp;temperature;humidity
59146;DHT22;44928;53.074;6.646;2023-02-01T00:02:17;6.80;99.90
59146;DHT22;44928;53.074;6.646;2023-02-01T00:04:43;6.80;99.90
59146;DHT22;44928;53.074;6.646;2023-02-01T00:07:09;6.70;99.90
59146;DHT22;44928;53.074;6.646;2023-02-01T00:09:35;6.70;99.90
59146;DHT22;44928;53.074;6.646;2023-02-01T00:12:00;6.80;99.90
59146;DHT22;44928;53.074;6.646;2023-02-01T00:14:28;6.70;99.90
59146;DHT22;44928;53.074;6.646;2023-02-01T00:16:55;6.80;99.90
59146;DHT22;44928;53.074;6.646;2023-02-01T00:19:20;6.70;99.90
59146;DHT22;44928;53.074;6.646;2023-02-01T00:21:46;6.80;99.90
59146;DHT22;44928;53.074;6.646;2023-02-01T00:24:12;6.80;99.90
59146;DHT22;44928;53.074;6.646;2023-02-01T00:26:44;6.80;99.90
59146;DHT22;44928;53.074;6.646;2023-02-01T00:29:13;6.80;99.90
59146;DHT22;44928;53.074;6.646;2023-02-01T00:31:40;6.80;99.90
59146;DHT22;44928;53.074;6.646;2023-02-01T00:34:06;6.80;99.90
59146;DHT22;44928;53.074;6.646;2023-02-01T00:36:32;6.80;99.90
59146;DHT22;44928;53.074;6.646;2023-02-01T00:38:58;6.90;99.90
59146;DHT22;44928;53.074;6.646;2023-02-01T00:41:24;6.80;99.90
59146;DHT22;44928;53.074;6.646;2023-02-01T00:43:50;6.90;99.90
59146;DHT22;44928;53.074;6.646;2023-02-01T00:46:17;6.90;99.90
59146;DHT22;44928;53.074;6.646;2023-02-01T00:48:44;6.90;99.90
59146;DHT22;44928;53.074;6.646;2023-02-01T00:51:13;6.90;99.90
59146;DHT22;44928;53.074;6.646;2023-02-01T00:53:39;6.80;99.90
59146;DHT22;44928;53.074;6.646;2023-02-01T00:56:05;6.80;99.90
59146;DHT22;44928;53.074;6.646;2023-02-01T00:58:32;6.80;99.90
59146;DHT22;44928;53.074;6.646;2023-02-01T01:01:25;6.80;99.90
59146;DHT22;44928;53.074;6.646;2023-02-01T01:03:56;6.80;99.90
59146;DHT22;44928;53.074;6.646;2023-02-01T01:06:28;6.90;99.90
59146;DHT22;44928;53.074;6.646;2023-02-01T01:08:55;6.80;99.90
59146;DHT22;44928;53.074;6.646;2023-02-01T01:11:27;6.80;99.90
59146;DHT22;44928;53.074;6.646;2023-02-01T01:13:54;6.80;99.90
59146;DHT22;44928;53.074;6.646;2023-02-01T01:16:21;6.80;99.90
59146;DHT22;44928;53.074;6.646;2023-02-01T01:18:48;6.80;99.90
59146;DHT22;44928;53.074;6.646;2023-02-01T01:21:15;6.80;99.90
59146;DHT22;44928;53.074;6.646;2023-02-01T01:23:41;6.80;99.90
59146;DHT22;44928;53.074;6.646;2023-02-01T01:26:09;6.80;99.90
59146;DHT22;44928;53.074;6.646;2023-02-01T01:28:35;6.80;99.90
59146;DHT22;44928;53.074;6.646;2023-02-01T01:31:02;6.90;99.90
59146;DHT22;44928;53.074;6.646;2023-02-01T01:33:28;6.90;99.90
59146;DHT22;44928;53.074;6.646;2023-02-01T01:35:53;6.90;99.90
59146;DHT22;44928;53.074;6.646;2023-02-01T01:38:19;6.90;99.90
59146;DHT22;44928;53.074;6.646;2023-02-01T01:40:46;6.90;99.90
59146;DHT22;44928;53.074;6.646;2023-02-01T01:43:17;6.90;99.90
59146;DHT22;44928;53.074;6.646;2023-02-01T01:45:43;7.00;99.90
59146;DHT22;44928;53.074;6.646;2023-02-01T01:48:15;6.90;99.90
59146;DHT22;44928;53.074;6.646;2023-02-01T01:51:05;6.90;99.90
59146;DHT22;44928;53.074;6.646;2023-02-01T01:53:43;6.90;99.90
59146;DHT22;44928;53.074;6.646;2023-02-01T01:56:11;6.90;99.90
59146;DHT22;44928;53.074;6.646;2023-02-01T01:58:37;6.90;99.90
59146;DHT22;44928;53.074;6.646;2023-02-01T02:01:04;6.80;99.90
59146;DHT22;44928;53.074;6.646;2023-02-01T02:03:35;6.90;99.90
59146;DHT22;44928;53.074;6.646;2023-02-01T02:06:04;6.80;99.90
59146;DHT22;44928;53.074;6.646;2023-02-01T02:08:33;6.80;99.90
59146;DHT22;44928;53.074;6.646;2023-02-01T02:10:59;6.80;99.90
59146;DHT22;44928;53.074;6.646;2023-02-01T02:13:33;6.70;99.90
59146;DHT22;44928;53.074;6.646;2023-02-01T02:21:24;6.60;99.90
59146;DHT22;44928;53.074;6.646;2023-02-01T02:38:00;6.40;99.90
59146;DHT22;44928;53.074;6.646;2023-02-01T02:43:52;6.30;99.90
59146;DHT22;44928;53.074;6.646;2023-02-01T02:46:48;6.30;99.90
59146;DHT22;44928;53.074;6.646;2023-02-01T02:49:39;6.30;99.90
59146;DHT22;44928;53.074;6.646;2023-02-01T02:52:16;6.40;99.90
59146;DHT22;44928;53.074;6.646;2023-02-01T02:55:04;6.30;99.90
59146;DHT22;44928;53.074;6.646;2023-02-01T02:57:34;6.30;99.90
59146;DHT22;44928;53.074;6.646;2023-02-01T03:00:24;6.40;99.90
59146;DHT22;44928;53.074;6.646;2023-02-01T03:03:09;6.40;99.90
59146;DHT22;44928;53.074;6.646;2023-02-01T03:05:53;6.40;99.90
59146;DHT22;44928;53.074;6.646;2023-02-01T03:08:27;6.40;99.90
59146;DHT22;44928;53.074;6.646;2023-02-01T03:11:10;6.40;99.90
59146;DHT22;44928;53.074;6.646;2023-02-01T03:13:57;6.50;99.90
59146;DHT22;44928;53.074;6.646;2023-02-01T03:19:40;6.60;99.90
59146;DHT22;44928;53.074;6.646;2023-02-01T03:22:00;6.50;99.90
59146;DHT22;44928;53.074;6.646;2023-02-01T03:24:41;6.50;99.90
59146;DHT22;44928;53.074;6.646;2023-02-01T03:27:29;6.60;99.90
59146;DHT22;44928;53.074;6.646;2023-02-01T03:32:35;6.50;99.90
59146;DHT22;44928;53.074;6.646;2023-02-01T03:40:45;6.60;99.90
59146;DHT22;44928;53.074;6.646;2023-02-01T03:43:16;6.60;99.90
59146;DHT22;44928;53.074;6.646;2023-02-01T03:45:56;6.60;99.90
59146;DHT22;44928;53.074;6.646;2023-02-01T03:48:25;6.60;99.90
59146;DHT22;44928;53.074;6.646;2023-02-01T03:50:56;6.60;99.90
59146;DHT22;44928;53.074;6.646;2023-02-01T03:53:23;6.60;99.90
59146;DHT22;44928;53.074;6.646;2023-02-01T03:55:51;6.60;99.90
59146;DHT22;44928;53.074;6.646;2023-02-01T03:58:21;6.60;99.90
59146;DHT22;44928;53.074;6.646;2023-02-01T04:00:58;6.60;99.90
59146;DHT22;44928;53.074;6.646;2023-02-01T04:03:25;6.70;99.90
59146;DHT22;44928;53.074;6.646;2023-02-01T04:05:52;6.60;99.90
59146;DHT22;44928;53.074;6.646;2023-02-01T04:08:19;6.70;99.90
59146;DHT22;44928;53.074;6.646;2023-02-01T04:10:46;6.80;99.90
59146;DHT22;44928;53.074;6.646;2023-02-01T04:13:12;6.80;99.90
59146;DHT22;44928;53.074;6.646;2023-02-01T04:15:37;6.80;99.90
59146;DHT22;44928;53.074;6.646;2023-02-01T04:18:04;6.80;99.90
59146;DHT22;44928;53.074;6.646;2023-02-01T04:20:29;6.80;99.90
59146;DHT22;44928;53.074;6.646;2023-02-01T04:22:55;6.70;99.90
59146;DHT22;44928;53.074;6.646;2023-02-01T04:25:21;6.70;99.90
59146;DHT22;44928;53.074;6.646;2023-02-01T04:27:47;6.60;99.90
59146;DHT22;44928;53.074;6.646;2023-02-01T04:30:13;6.70;99.90
59146;DHT22;44928;53.074;6.646;2023-02-01T04:32:39;6.70;99.90
59146;DHT22;44928;53.074;6.646;2023-02-01T04:35:06;6.60;99.90
59146;DHT22;44928;53.074;6.646;2023-02-01T04:37:33;6.60;99.90
59146;DHT22;44928;53.074;6.646;2023-02-01T04:39:58;6.70;99.90
59146;DHT22;44928;53.074;6.646;2023-02-01T04:42:25;6.80;99.90
59146;DHT22;44928;53.074;6.646;2023-02-01T04:44:51;6.80;99.90
59146;DHT22;44928;53.074;6.646;2023-02-01T04:47:16;6.80;99.90
59146;DHT22;44928;53.074;6.646;2023-02-01T04:49:42;6.80;99.90
59146;DHT22;44928;53.074;6.646;2023-02-01T04:52:08;6.80;99.90
59146;DHT22;44928;53.074;6.646;2023-02-01T04:54:34;6.80;99.90
59146;DHT22;44928;53.074;6.646;2023-02-01T04:57:00;6.90;99.90
59146;DHT22;44928;53.074;6.646;2023-02-01T04:59:26;6.90;99.90
59146;DHT22;44928;53.074;6.646;2023-02-01T05:01:51;6.90;99.90
59146;DHT22;44928;53.074;6.646;2023-02-01T05:04:17;6.90;99.90
59146;DHT22;44928;53.074;6.646;2023-02-01T05:06:44;6.80;99.90
59146;DHT22;44928;53.074;6.646;2023-02-01T05:09:10;6.80;99.90
59146;DHT22;44928;53.074;6.646;2023-02-01T05:11:36;6.90;99.90
59146;DHT22;44928;53.074;6.646;2023-02-01T05:14:21;6.90;99.90
59146;DHT22;44928;53.074;6.646;2023-02-01T05:16:46;6.90;99.90
59146;DHT22;44928;53.074;6.646;2023-02-01T05:19:12;6.90;99.90
59146;DHT22;44928;53.074;6.646;2023-02-01T05:21:38;6.90;99.90
59146;DHT22;44928;53.074;6.646;2023-02-01T05:24:04;6.80;99.90
59146;DHT22;44928;53.074;6.646;2023-02-01T05:26:37;6.80;99.90
59146;DHT22;44928;53.074;6.646;2023-02-01T05:29:04;6.80;99.90
59146;DHT22;44928;53.074;6.646;2023-02-01T05:31:30;6.80;99.90
59146;DHT22;44928;53.074;6.646;2023-02-01T05:33:56;6.80;99.90
59146;DHT22;44928;53.074;6.646;2023-02-01T05:36:21;6.80;99.90
59146;DHT22;44928;53.074;6.646;2023-02-01T05:38:47;6.70;99.90
59146;DHT22;44928;53.074;6.646;2023-02-01T05:41:13;6.70;99.90
59146;DHT22;44928;53.074;6.646;2023-02-01T05:43:39;6.80;99.90
59146;DHT22;44928;53.074;6.646;2023-02-01T05:46:05;6.90;99.90
59146;DHT22;44928;53.074;6.646;2023-02-01T05:48:31;6.90;99.90
59146;DHT22;44928;53.074;6.646;2023-02-01T05:50:56;6.90;99.90
59146;DHT22;44928;53.074;6.646;2023-02-01T05:53:22;6.90;99.90
59146;DHT22;44928;53.074;6.646;2023-02-01T05:55:48;6.90;99.90
59146;DHT22;44928;53.074;6.646;2023-02-01T05:58:14;6.80;99.90
59146;DHT22;44928;53.074;6.646;2023-02-01T06:00:40;6.80;99.90
59146;DHT22;44928;53.074;6.646;2023-02-01T06:03:06;6.90;99.90
59146;DHT22;44928;53.074;6.646;2023-02-01T06:05:32;7.00;99.90
59146;DHT22;44928;53.074;6.646;2023-02-01T06:07:58;7.00;99.90
59146;DHT22;44928;53.074;6.646;2023-02-01T06:10:24;7.00;99.90
59146;DHT22;44928;53.074;6.646;2023-02-01T06:12:50;7.00;99.90
59146;DHT22;44928;53.074;6.646;2023-02-01T06:15:16;7.00;99.90
59146;DHT22;44928;53.074;6.646;2023-02-01T06:17:43;6.90;99.90
59146;DHT22;44928;53.074;6.646;2023-02-01T06:20:11;6.90;99.90
59146;DHT22;44928;53.074;6.646;2023-02-01T06:22:37;6.90;99.90
59146;DHT22;44928;53.074;6.646;2023-02-01T06:25:04;6.90;99.90
59146;DHT22;44928;53.074;6.646;2023-02-01T06:27:32;6.90;99.90
59146;DHT22;44928;53.074;6.646;2023-02-01T06:29:57;6.90;99.90
59146;DHT22;44928;53.074;6.646;2023-02-01T06:32:23;6.90;99.90
59146;DHT22;44928;53.074;6.646;2023-02-01T06:34:49;6.90;99.90
59146;DHT22;44928;53.074;6.646;2023-02-01T06:37:15;6.90;99.90
59146;DHT22;44928;53.074;6.646;2023-02-01T06:39:40;6.90;99.90
59146;DHT22;44928;53.074;6.646;2023-02-01T06:42:06;7.00;99.90
59146;DHT22;44928;53.074;6.646;2023-02-01T06:44:32;6.80;99.90
59146;DHT22;44928;53.074;6.646;2023-02-01T06:46:58;6.80;99.90
59146;DHT22;44928;53.074;6.646;2023-02-01T06:49:23;6.80;99.90
59146;DHT22;44928;53.074;6.646;2023-02-01T06:51:49;6.90;99.90
59146;DHT22;44928;53.074;6.646;2023-02-01T06:54:15;6.80;99.90
59146;DHT22;44928;53.074;6.646;2023-02-01T06:56:41;6.90;99.90
59146;DHT22;44928;53.074;6.646;2023-02-01T06:59:07;6.90;99.90
59146;DHT22;44928;53.074;6.646;2023-02-01T07:01:34;6.80;99.90
59146;DHT22;44928;53.074;6.646;2023-02-01T07:04:00;6.80;99.90
59146;DHT22;44928;53.074;6.646;2023-02-01T07:06:25;6.80;99.90
59146;DHT22;44928;53.074;6.646;2023-02-01T07:08:51;6.80;99.90
59146;DHT22;44928;53.074;6.646;2023-02-01T07:11:18;6.80;99.90
59146;DHT22;44928;53.074;6.646;2023-02-01T07:13:44;6.80;99.90
59146;DHT22;44928;53.074;6.646;2023-02-01T07:16:13;6.80;99.90
59146;DHT22;44928;53.074;6.646;2023-02-01T07:18:39;6.80;99.90
59146;DHT22;44928;53.074;6.646;2023-02-01T07:21:05;6.80;99.90
59146;DHT22;44928;53.074;6.646;2023-02-01T07:23:31;6.80;99.90
59146;DHT22;44928;53.074;6.646;2023-02-01T07:25:59;6.90;99.90
59146;DHT22;44928;53.074;6.646;2023-02-01T07:28:26;6.90;99.90
59146;DHT22;44928;53.074;6.646;2023-02-01T07:30:53;6.90;99.90
59146;DHT22;44928;53.074;6.646;2023-02-01T07:33:23;6.90;99.90
59146;DHT22;44928;53.074;6.646;2023-02-01T07:35:50;6.90;99.90
59146;DHT22;44928;53.074;6.646;2023-02-01T07:38:16;6.90;99.90
59146;DHT22;44928;53.074;6.646;2023-02-01T07:40:43;6.80;99.90
59146;DHT22;44928;53.074;6.646;2023-02-01T07:43:09;6.90;99.90
59146;DHT22;44928;53.074;6.646;2023-02-01T07:45:35;6.90;99.90
59146;DHT22;44928;53.074;6.646;2023-02-01T07:48:02;7.00;99.90
59146;DHT22;44928;53.074;6.646;2023-02-01T07:50:28;6.90;99.90
59146;DHT22;44928;53.074;6.646;2023-02-01T07:52:54;6.90;99.90
59146;DHT22;44928;53.074;6.646;2023-02-01T07:55:21;6.90;99.90
59146;DHT22;44928;53.074;6.646;2023-02-01T07:57:46;6.90;99.90
59146;DHT22;44928;53.074;6.646;2023-02-01T08:00:13;6.90;99.90
59146;DHT22;44928;53.074;6.646;2023-02-01T08:03:11;6.90;99.90
59146;DHT22;44928;53.074;6.646;2023-02-01T08:05:37;6.90;99.90
59146;DHT22;44928;53.074;6.646;2023-02-01T08:08:03;6.90;99.90
59146;DHT22;44928;53.074;6.646;2023-02-01T08:10:29;6.90;99.90
59146;DHT22;44928;53.074;6.646;2023-02-01T08:12:58;6.90;99.90
59146;DHT22;44928;53.074;6.646;2023-02-01T08:15:26;6.90;99.90
59146;DHT22;44928;53.074;6.646;2023-02-01T08:17:53;6.90;99.90
59146;DHT22;44928;53.074;6.646;2023-02-01T08:20:20;6.80;99.90
59146;DHT22;44928;53.074;6.646;2023-02-01T08:22:50;6.90;99.90
59146;DHT22;44928;53.074;6.646;2023-02-01T08:25:16;6.90;99.90
59146;DHT22;44928;53.074;6.646;2023-02-01T08:27:42;6.90;99.90
59146;DHT22;44928;53.074;6.646;2023-02-01T08:30:08;6.80;99.90
59146;DHT22;44928;53.074;6.646;2023-02-01T08:32:34;6.80;99.90
59146;DHT22;44928;53.074;6.646;2023-02-01T08:35:01;6.80;99.90
59146;DHT22;44928;53.074;6.646;2023-02-01T08:37:27;6.90;99.90
59146;DHT22;44928;53.074;6.646;2023-02-01T08:39:52;6.90;99.90
59146;DHT22;44928;53.074;6.646;2023-02-01T08:42:18;6.90;99.90
59146;DHT22;44928;53.074;6.646;2023-02-01T08:45:04;6.90;99.90
59146;DHT22;44928;53.074;6.646;2023-02-01T08:47:30;7.00;99.90
59146;DHT22;44928;53.074;6.646;2023-02-01T08:49:56;6.90;99.90
59146;DHT22;44928;53.074;6.646;2023-02-01T08:52:22;6.90;99.90
59146;DHT22;44928;53.074;6.646;2023-02-01T08:54:48;6.90;99.90
59146;DHT22;44928;53.074;6.646;2023-02-01T08:57:14;6.90;99.90
59146;DHT22;44928;53.074;6.646;2023-02-01T08:59:40;6.90;99.90
59146;DHT22;44928;53.074;6.646;2023-02-01T09:02:05;6.90;99.90
59146;DHT22;44928;53.074;6.646;2023-02-01T09:04:31;7.00;99.90
59146;DHT22;44928;53.074;6.646;2023-02-01T09:06:58;7.00;99.90
59146;DHT22;44928;53.074;6.646;2023-02-01T09:09:24;7.00;99.90
59146;DHT22;44928;53.074;6.646;2023-02-01T09:11:50;7.00;99.90
59146;DHT22;44928;53.074;6.646;2023-02-01T09:14:16;6.90;99.90
59146;DHT22;44928;53.074;6.646;2023-02-01T09:16:42;6.90;99.90
59146;DHT22;44928;53.074;6.646;2023-02-01T09:19:08;6.90;99.90
59146;DHT22;44928;53.074;6.646;2023-02-01T09:21:34;6.90;99.90
59146;DHT22;44928;53.074;6.646;2023-02-01T09:24:00;6.90;99.90
59146;DHT22;44928;53.074;6.646;2023-02-01T09:26:26;6.90;99.90
59146;DHT22;44928;53.074;6.646;2023-02-01T09:28:52;7.00;99.90
59146;DHT22;44928;53.074;6.646;2023-02-01T09:31:18;7.00;99.90
59146;DHT22;44928;53.074;6.646;2023-02-01T09:33:44;7.10;99.90
59146;DHT22;44928;53.074;6.646;2023-02-01T09:36:10;7.00;99.90
59146;DHT22;44928;53.074;6.646;2023-02-01T09:38:35;7.00;99.90
59146;DHT22;44928;53.074;6.646;2023-02-01T09:41:06;7.00;99.90
59146;DHT22;44928;53.074;6.646;2023-02-01T09:44:03;7.00;99.90
59146;DHT22;44928;53.074;6.646;2023-02-01T09:46:34;7.00;99.90
59146;DHT22;44928;53.074;6.646;2023-02-01T09:49:08;7.00;99.90
59146;DHT22;44928;53.074;6.646;2023-02-01T09:51:42;6.90;99.90
59146;DHT22;44928;53.074;6.646;2023-02-01T09:54:17;7.00;99.90
59146;DHT22;44928;53.074;6.646;2023-02-01T10:01:54;6.90;99.90
59146;DHT22;44928;53.074;6.646;2023-02-01T10:04:21;6.80;99.90
59146;DHT22;44928;53.074;6.646;2023-02-01T10:09:51;6.80;99.90
59146;DHT22;44928;53.074;6.646;2023-02-01T10:25:26;6.70;99.90
59146;DHT22;44928;53.074;6.646;2023-02-01T10:27:52;6.70;99.90
59146;DHT22;44928;53.074;6.646;2023-02-01T10:30:24;6.70;99.90
59146;DHT22;44928;53.074;6.646;2023-02-01T10:33:07;6.70;99.90
59146;DHT22;44928;53.074;6.646;2023-02-01T10:35:38;6.70;99.90
59146;DHT22;44928;53.074;6.646;2023-02-01T10:38:18;6.80;99.90
59146;DHT22;44928;53.074;6.646;2023-02-01T10:40:47;6.80;99.90
59146;DHT22;44928;53.074;6.646;2023-02-01T10:43:13;6.90;99.90
59146;DHT22;44928;53.074;6.646;2023-02-01T10:45:39;7.00;99.90
59146;DHT22;44928;53.074;6.646;2023-02-01T10:48:08;7.00;99.90
59146;DHT22;44928;53.074;6.646;2023-02-01T10:50:38;7.00;99.90
59146;DHT22;44928;53.074;6.646;2023-02-01T10:53:17;7.00;99.90
59146;DHT22;44928;53.074;6.646;2023-02-01T10:55:48;7.10;99.90
59146;DHT22;44928;53.074;6.646;2023-02-01T10:58:19;7.10;99.90
59146;DHT22;44928;53.074;6.646;2023-02-01T11:01:08;7.10;99.90
59146;DHT22;44928;53.074;6.646;2023-02-01T11:03:55;7.20;99.90
59146;DHT22;44928;53.074;6.646;2023-02-01T11:08:53;7.20;99.90
59146;DHT22;44928;53.074;6.646;2023-02-01T11:11:20;7.20;99.90
59146;DHT22;44928;53.074;6.646;2023-02-01T11:13:57;7.20;99.90
59146;DHT22;44928;53.074;6.646;2023-02-01T11:16:36;7.20;99.90
59146;DHT22;44928;53.074;6.646;2023-02-01T11:19:04;7.20;99.90
59146;DHT22;44928;53.074;6.646;2023-02-01T11:21:30;7.30;99.90
59146;DHT22;44928;53.074;6.646;2023-02-01T11:24:03;7.30;99.90
59146;DHT22;44928;53.074;6.646;2023-02-01T11:26:30;7.30;99.90
59146;DHT22;44928;53.074;6.646;2023-02-01T11:29:10;7.30;99.90
59146;DHT22;44928;53.074;6.646;2023-02-01T11:31:37;7.20;99.90
59146;DHT22;44928;53.074;6.646;2023-02-01T11:34:20;7.10;99.90
59146;DHT22;44928;53.074;6.646;2023-02-01T11:36:47;7.10;99.90
59146;DHT22;44928;53.074;6.646;2023-02-01T11:42:16;7.20;99.90
59146;DHT22;44928;53.074;6.646;2023-02-01T11:44:46;7.30;99.90
59146;DHT22;44928;53.074;6.646;2023-02-01T11:47:23;7.40;99.90
59146;DHT22;44928;53.074;6.646;2023-02-01T11:50:37;7.40;99.90
59146;DHT22;44928;53.074;6.646;2023-02-01T11:52:47;7.40;99.90
59146;DHT22;44928;53.074;6.646;2023-02-01T12:14:35;7.40;99.90
59146;DHT22;44928;53.074;6.646;2023-02-01T12:39:39;7.90;99.90
59146;DHT22;44928;53.074;6.646;2023-02-01T12:47:33;8.10;99.90
59146;DHT22;44928;53.074;6.646;2023-02-01T12:50:12;8.10;99.90
59146;DHT22;44928;53.074;6.646;2023-02-01T12:52:46;8.10;99.90
59146;DHT22;44928;53.074;6.646;2023-02-01T12:58:12;8.00;99.90
59146;DHT22;44928;53.074;6.646;2023-02-01T13:00:41;8.00;99.90
59146;DHT22;44928;53.074;6.646;2023-02-01T13:06:04;8.00;99.90
59146;DHT22;44928;53.074;6.646;2023-02-01T13:09:00;8.10;99.90
59146;DHT22;44928;53.074;6.646;2023-02-01T13:11:40;8.20;99.90
59146;DHT22;44928;53.074;6.646;2023-02-01T13:16:37;8.20;99.90
59146;DHT22;44928;53.074;6.646;2023-02-01T13:19:17;8.20;99.90
59146;DHT22;44928;53.074;6.646;2023-02-01T13:21:58;8.20;99.90
59146;DHT22;44928;53.074;6.646;2023-02-01T13:27:14;8.20;99.90
59146;DHT22;44928;53.074;6.646;2023-02-01T13:41:07;8.20;99.90
59146;DHT22;44928;53.074;6.646;2023-02-01T13:43:38;8.20;99.90
59146;DHT22;44928;53.074;6.646;2023-02-01T13:46:10;8.20;99.90
59146;DHT22;44928;53.074;6.646;2023-02-01T13:48:48;8.20;99.90
59146;DHT22;44928;53.074;6.646;2023-02-01T13:51:15;8.20;99.90
59146;DHT22;44928;53.074;6.646;2023-02-01T13:53:50;8.20;99.90
59146;DHT22;44928;53.074;6.646;2023-02-01T13:56:18;8.10;99.90
59146;DHT22;44928;53.074;6.646;2023-02-01T13:58:47;8.10;99.90
59146;DHT22;44928;53.074;6.646;2023-02-01T14:03:53;8.20;99.90
59146;DHT22;44928;53.074;6.646;2023-02-01T14:09:18;8.20;99.90
59146;DHT22;44928;53.074;6.646;2023-02-01T14:11:53;8.30;99.90
59146;DHT22;44928;53.074;6.646;2023-02-01T14:19:36;8.10;99.90
59146;DHT22;44928;53.074;6.646;2023-02-01T14:24:54;8.10;99.90
59146;DHT22;44928;53.074;6.646;2023-02-01T14:27:23;8.20;99.90
59146;DHT22;44928;53.074;6.646;2023-02-01T14:29:58;8.30;99.90
59146;DHT22;44928;53.074;6.646;2023-02-01T14:32:34;8.30;99.90
59146;DHT22;44928;53.074;6.646;2023-02-01T14:35:06;8.30;99.90
59146;DHT22;44928;53.074;6.646;2023-02-01T14:37:37;8.20;99.90
59146;DHT22;44928;53.074;6.646;2023-02-01T14:42:47;8.30;99.90
59146;DHT22;44928;53.074;6.646;2023-02-01T14:53:34;8.20;99.90
59146;DHT22;44928;53.074;6.646;2023-02-01T14:56:14;8.20;99.90
59146;DHT22;44928;53.074;6.646;2023-02-01T15:01:31;8.30;99.90
59146;DHT22;44928;53.074;6.646;2023-02-01T15:09:11;8.20;99.90
59146;DHT22;44928;53.074;6.646;2023-02-01T15:12:17;8.20;99.90
59146;DHT22;44928;53.074;6.646;2023-02-01T15:14:48;8.30;99.90
59146;DHT22;44928;53.074;6.646;2023-02-01T15:17:30;8.30;99.90
59146;DHT22;44928;53.074;6.646;2023-02-01T15:20:12;8.30;99.90
59146;DHT22;44928;53.074;6.646;2023-02-01T15:22:38;8.30;99.90
59146;DHT22;44928;53.074;6.646;2023-02-01T15:25:04;8.20;99.90
59146;DHT22;44928;53.074;6.646;2023-02-01T15:27:33;8.20;99.90
59146;DHT22;44928;53.074;6.646;2023-02-01T15:30:06;8.30;99.90
59146;DHT22;44928;53.074;6.646;2023-02-01T15:32:39;8.30;99.90
59146;DHT22;44928;53.074;6.646;2023-02-01T15:35:30;8.30;99.90
59146;DHT22;44928;53.074;6.646;2023-02-01T15:37:51;8.30;99.90
59146;DHT22;44928;53.074;6.646;2023-02-01T15:40:21;8.30;99.90
59146;DHT22;44928;53.074;6.646;2023-02-01T15:45:19;8.30;99.90
59146;DHT22;44928;53.074;6.646;2023-02-01T15:47:50;8.20;99.90
59146;DHT22;44928;53.074;6.646;2023-02-01T15:50:19;8.20;99.90
59146;DHT22;44928;53.074;6.646;2023-02-01T15:52:48;8.20;99.90
59146;DHT22;44928;53.074;6.646;2023-02-01T15:57:55;8.10;99.90
59146;DHT22;44928;53.074;6.646;2023-02-01T16:03:02;8.10;99.90
59146;DHT22;44928;53.074;6.646;2023-02-01T16:05:42;8.10;99.90
59146;DHT22;44928;53.074;6.646;2023-02-01T16:08:19;8.00;99.90
59146;DHT22;44928;53.074;6.646;2023-02-01T16:10:48;8.00;99.90
59146;DHT22;44928;53.074;6.646;2023-02-01T16:13:16;8.00;99.90
59146;DHT22;44928;53.074;6.646;2023-02-01T16:15:42;8.00;99.90
59146;DHT22;44928;53.074;6.646;2023-02-01T16:18:09;7.90;99.90
59146;DHT22;44928;53.074;6.646;2023-02-01T16:20:37;8.00;99.90
59146;DHT22;44928;53.074;6.646;2023-02-01T16:23:04;7.90;99.90
59146;DHT22;44928;53.074;6.646;2023-02-01T16:25:30;7.80;99.90
59146;DHT22;44928;53.074;6.646;2023-02-01T16:27:56;7.90;99.90
59146;DHT22;44928;53.074;6.646;2023-02-01T16:30:22;7.90;99.90
59146;DHT22;44928;53.074;6.646;2023-02-01T16:32:57;7.90;99.90
59146;DHT22;44928;53.074;6.646;2023-02-01T16:35:28;7.80;99.90
59146;DHT22;44928;53.074;6.646;2023-02-01T16:37:55;7.70;99.90
59146;DHT22;44928;53.074;6.646;2023-02-01T16:40:21;7.70;99.90
59146;DHT22;44928;53.074;6.646;2023-02-01T16:42:50;7.70;99.90
59146;DHT22;44928;53.074;6.646;2023-02-01T16:45:17;7.70;99.90
59146;DHT22;44928;53.074;6.646;2023-02-01T16:47:48;7.70;99.90
59146;DHT22;44928;53.074;6.646;2023-02-01T16:50:18;7.70;99.90
59146;DHT22;44928;53.074;6.646;2023-02-01T16:52:46;7.60;99.90
59146;DHT22;44928;53.074;6.646;2023-02-01T16:55:17;7.50;99.90
59146;DHT22;44928;53.074;6.646;2023-02-01T16:57:43;7.50;99.90
59146;DHT22;44928;53.074;6.646;2023-02-01T17:00:10;7.50;99.90
59146;DHT22;44928;53.074;6.646;2023-02-01T17:02:37;7.40;99.90
59146;DHT22;44928;53.074;6.646;2023-02-01T17:05:04;7.40;99.90
59146;DHT22;44928;53.074;6.646;2023-02-01T17:07:30;7.40;99.90
59146;DHT22;44928;53.074;6.646;2023-02-01T17:09:55;7.40;99.90
59146;DHT22;44928;53.074;6.646;2023-02-01T17:12:24;7.40;99.90
59146;DHT22;44928;53.074;6.646;2023-02-01T17:14:51;7.40;99.90
59146;DHT22;44928;53.074;6.646;2023-02-01T17:17:19;7.40;99.90
59146;DHT22;44928;53.074;6.646;2023-02-01T17:19:49;7.40;99.90
59146;DHT22;44928;53.074;6.646;2023-02-01T17:22:18;7.40;99.90
59146;DHT22;44928;53.074;6.646;2023-02-01T17:24:44;7.40;99.90
59146;DHT22;44928;53.074;6.646;2023-02-01T17:27:10;7.30;99.90
59146;DHT22;44928;53.074;6.646;2023-02-01T17:29:36;7.40;99.90
59146;DHT22;44928;53.074;6.646;2023-02-01T17:32:02;7.50;99.90
59146;DHT22;44928;53.074;6.646;2023-02-01T17:34:28;7.50;99.90
59146;DHT22;44928;53.074;6.646;2023-02-01T17:36:54;7.50;99.90
59146;DHT22;44928;53.074;6.646;2023-02-01T17:39:20;7.50;99.90
59146;DHT22;44928;53.074;6.646;2023-02-01T17:42:05;7.40;99.90
59146;DHT22;44928;53.074;6.646;2023-02-01T17:44:33;7.40;99.90
59146;DHT22;44928;53.074;6.646;2023-02-01T17:46:59;7.30;99.90
59146;DHT22;44928;53.074;6.646;2023-02-01T17:49:25;7.30;99.90
59146;DHT22;44928;53.074;6.646;2023-02-01T17:51:54;7.30;99.90
59146;DHT22;44928;53.074;6.646;2023-02-01T17:54:19;7.40;99.90
59146;DHT22;44928;53.074;6.646;2023-02-01T17:56:46;7.30;99.90
59146;DHT22;44928;53.074;6.646;2023-02-01T17:59:14;7.30;99.90
59146;DHT22;44928;53.074;6.646;2023-02-01T18:01:42;7.40;99.90
59146;DHT22;44928;53.074;6.646;2023-02-01T18:04:16;7.30;99.90
59146;DHT22;44928;53.074;6.646;2023-02-01T18:06:43;7.30;99.90
59146;DHT22;44928;53.074;6.646;2023-02-01T18:09:09;7.20;99.90
59146;DHT22;44928;53.074;6.646;2023-02-01T18:11:35;7.20;99.90
59146;DHT22;44928;53.074;6.646;2023-02-01T18:14:01;7.20;99.90
59146;DHT22;44928;53.074;6.646;2023-02-01T18:16:32;7.20;99.90
59146;DHT22;44928;53.074;6.646;2023-02-01T18:18:58;7.20;99.90
59146;DHT22;44928;53.074;6.646;2023-02-01T18:21:35;7.20;99.90
59146;DHT22;44928;53.074;6.646;2023-02-01T18:24:01;7.20;99.90
59146;DHT22;44928;53.074;6.646;2023-02-01T18:26:27;7.10;99.90
59146;DHT22;44928;53.074;6.646;2023-02-01T18:28:56;7.10;99.90
59146;DHT22;44928;53.074;6.646;2023-02-01T18:31:28;7.10;99.90
59146;DHT22;44928;53.074;6.646;2023-02-01T18:33:58;7.20;99.90
59146;DHT22;44928;53.074;6.646;2023-02-01T18:36:25;7.10;99.90
59146;DHT22;44928;53.074;6.646;2023-02-01T18:38:51;7.10;99.90
59146;DHT22;44928;53.074;6.646;2023-02-01T18:41:21;7.10;99.90
59146;DHT22;44928;53.074;6.646;2023-02-01T18:43:48;7.10;99.90
59146;DHT22;44928;53.074;6.646;2023-02-01T18:46:15;7.10;99.90
59146;DHT22;44928;53.074;6.646;2023-02-01T18:48:42;7.10;99.90
59146;DHT22;44928;53.074;6.646;2023-02-01T18:51:12;7.10;99.90